OAL101 DNPO-DNMM
Flight info
| Callsign | OAL101 |
|---|---|
| Flight time | N/A |
| Altitude | 4500 |
| Route | PORTHARCOURT OFONI BOMADI OBORO GBAROGOLO NIKOROGHA AGGI GULANI UBACKE AWOYE ISEKUN EPE MOWE ILATE MURTALAMUHAMMED |
| Aircraft | BE9L/L-ABDFGSDX/G |
Departure
| Time | 2026-04-22 08:59 |
|---|---|
| Airport | Port Harcourt International Airport (DNPO) |
Arrival
| Time | N/A |
|---|---|
| Airport | Murtala Muhammed International Airport (DNMM) |
| Time | Latitude | Longitude | Altitude | Speed | Heading |
|---|---|---|---|---|---|
| 2026-04-22 08:51 | 5.01760 | 6.95551 | 133 ft | 0 kts | 301° |
| 2026-04-22 08:52 | 5.01761 | 6.95551 | 133 ft | 0 kts | 301° |
| 2026-04-22 08:53 | 5.01761 | 6.95550 | 133 ft | 0 kts | 278° |
| 2026-04-22 08:55 | 5.01761 | 6.95525 | 133 ft | 7 kts | 266° |
| 2026-04-22 08:55 | 5.01783 | 6.95457 | 131 ft | 13 kts | 298° |
| 2026-04-22 08:55 | 5.01824 | 6.95372 | 131 ft | 13 kts | 272° |
| 2026-04-22 08:55 | 5.01766 | 6.95302 | 131 ft | 16 kts | 208° |
| 2026-04-22 08:56 | 5.01642 | 6.95235 | 132 ft | 23 kts | 208° |
| 2026-04-22 08:56 | 5.01491 | 6.95154 | 131 ft | 25 kts | 208° |
| 2026-04-22 08:56 | 5.01334 | 6.95070 | 131 ft | 26 kts | 210° |
| 2026-04-22 08:56 | 5.01166 | 6.94979 | 131 ft | 28 kts | 206° |
| 2026-04-22 08:57 | 5.00991 | 6.94885 | 129 ft | 28 kts | 206° |
| 2026-04-22 08:57 | 5.00838 | 6.94803 | 129 ft | 10 kts | 213° |
| 2026-04-22 08:57 | 5.00821 | 6.94751 | 129 ft | 6 kts | 283° |
| 2026-04-22 08:57 | 5.00864 | 6.94709 | 129 ft | 10 kts | 336° |
| 2026-04-22 08:58 | 5.00941 | 6.94709 | 131 ft | 11 kts | 2° |
| 2026-04-22 08:58 | 5.01111 | 6.94732 | 131 ft | 36 kts | 34° |
| 2026-04-22 08:58 | 5.01463 | 6.94906 | 134 ft | 92 kts | 27° |
| 2026-04-22 08:58 | 5.02154 | 6.95290 | 256 ft | 126 kts | 28° |
| 2026-04-22 08:59 | 5.02982 | 6.95758 | 547 ft | 152 kts | 27° |
| 2026-04-22 08:59 | 5.04021 | 6.96332 | 607 ft | 185 kts | 28° |
| 2026-04-22 08:59 | 5.05241 | 6.96965 | 783 ft | 199 kts | 21° |
| 2026-04-22 08:59 | 5.06590 | 6.96975 | 981 ft | 199 kts | 336° |
| 2026-04-22 09:00 | 5.07580 | 6.96012 | 1001 ft | 207 kts | 294° |
| 2026-04-22 09:00 | 5.07627 | 6.94568 | 1001 ft | 214 kts | 250° |
| 2026-04-22 09:00 | 5.06783 | 6.93340 | 1114 ft | 213 kts | 231° |
| 2026-04-22 09:00 | 5.05876 | 6.92189 | 1373 ft | 207 kts | 232° |
| 2026-04-22 09:01 | 5.05000 | 6.91076 | 1605 ft | 203 kts | 235° |
| 2026-04-22 09:01 | 5.04184 | 6.89938 | 1988 ft | 193 kts | 234° |
| 2026-04-22 09:01 | 5.03462 | 6.88949 | 2779 ft | 164 kts | 234° |
| 2026-04-22 09:01 | 5.02827 | 6.88095 | 3418 ft | 150 kts | 234° |
| 2026-04-22 09:02 | 5.02287 | 6.87197 | 3783 ft | 154 kts | 257° |
| 2026-04-22 09:02 | 5.02132 | 6.86141 | 4175 ft | 156 kts | 260° |
| 2026-04-22 09:02 | 5.01924 | 6.85051 | 4493 ft | 164 kts | 261° |
| 2026-04-22 09:02 | 5.01701 | 6.83853 | 4535 ft | 187 kts | 261° |
| 2026-04-22 09:03 | 5.01477 | 6.82505 | 4526 ft | 200 kts | 262° |
| 2026-04-22 09:03 | 5.01244 | 6.81106 | 4521 ft | 207 kts | 262° |
| 2026-04-22 09:03 | 5.01008 | 6.79661 | 4519 ft | 212 kts | 262° |
| 2026-04-22 09:03 | 5.00762 | 6.78175 | 4517 ft | 215 kts | 262° |
| 2026-04-22 09:04 | 5.00519 | 6.76698 | 4516 ft | 217 kts | 262° |
| 2026-04-22 09:04 | 5.00274 | 6.75208 | 4516 ft | 217 kts | 262° |
| 2026-04-22 09:04 | 5.00207 | 6.73707 | 4509 ft | 216 kts | 281° |
| 2026-04-22 09:04 | 5.00274 | 6.72201 | 4510 ft | 218 kts | 265° |
| 2026-04-22 09:05 | 4.99948 | 6.70710 | 4506 ft | 218 kts | 252° |
| 2026-04-22 09:05 | 4.99504 | 6.69274 | 4494 ft | 214 kts | 270° |
| 2026-04-22 09:05 | 4.99725 | 6.67816 | 4508 ft | 211 kts | 274° |
| 2026-04-22 09:05 | 4.99617 | 6.66361 | 4507 ft | 210 kts | 267° |
| 2026-04-22 09:06 | 4.99487 | 6.64890 | 4496 ft | 210 kts | 264° |
| 2026-04-22 09:06 | 4.99325 | 6.63449 | 4497 ft | 210 kts | 265° |
| 2026-04-22 09:06 | 4.99155 | 6.61983 | 4494 ft | 210 kts | 264° |
| 2026-04-22 09:06 | 4.98986 | 6.60533 | 4493 ft | 210 kts | 265° |
| 2026-04-22 09:07 | 4.98814 | 6.59078 | 4492 ft | 210 kts | 265° |
| 2026-04-22 09:07 | 4.98644 | 6.57608 | 4489 ft | 210 kts | 265° |
| 2026-04-22 09:07 | 4.98470 | 6.56155 | 4485 ft | 210 kts | 265° |
| 2026-04-22 09:07 | 4.98302 | 6.54716 | 4486 ft | 210 kts | 264° |
| 2026-04-22 09:08 | 4.98132 | 6.53261 | 4479 ft | 210 kts | 264° |
| 2026-04-22 09:08 | 4.97958 | 6.51793 | 4479 ft | 210 kts | 265° |
| 2026-04-22 09:08 | 4.97789 | 6.50352 | 4480 ft | 210 kts | 264° |
| 2026-04-22 09:08 | 4.97617 | 6.48894 | 4477 ft | 210 kts | 265° |
| 2026-04-22 09:09 | 4.97447 | 6.47441 | 4478 ft | 210 kts | 264° |
| 2026-04-22 09:09 | 4.97276 | 6.45986 | 4476 ft | 210 kts | 264° |
| 2026-04-22 09:09 | 4.97105 | 6.44532 | 4476 ft | 210 kts | 264° |
| 2026-04-22 09:09 | 4.96934 | 6.43081 | 4477 ft | 209 kts | 264° |
| 2026-04-22 09:10 | 4.96761 | 6.41620 | 4477 ft | 209 kts | 264° |
| 2026-04-22 09:10 | 4.96592 | 6.40195 | 4469 ft | 201 kts | 264° |
| 2026-04-22 09:10 | 4.96431 | 6.38840 | 4465 ft | 188 kts | 265° |
| 2026-04-22 09:10 | 4.96281 | 6.37580 | 4466 ft | 178 kts | 265° |
| 2026-04-22 09:11 | 4.96138 | 6.36357 | 4469 ft | 171 kts | 264° |
| 2026-04-22 09:11 | 4.96000 | 6.35204 | 4470 ft | 165 kts | 265° |
| 2026-04-22 09:11 | 4.95867 | 6.34074 | 4470 ft | 160 kts | 265° |
| 2026-04-22 09:11 | 4.95738 | 6.32975 | 4471 ft | 157 kts | 265° |
| 2026-04-22 09:12 | 4.95610 | 6.31886 | 4474 ft | 155 kts | 265° |
| 2026-04-22 09:12 | 4.95483 | 6.30820 | 4473 ft | 153 kts | 265° |
| 2026-04-22 09:12 | 4.95360 | 6.29767 | 4473 ft | 151 kts | 265° |
| 2026-04-22 09:12 | 4.95238 | 6.28730 | 4475 ft | 150 kts | 265° |
| 2026-04-22 09:13 | 4.95115 | 6.27692 | 4474 ft | 148 kts | 265° |
| 2026-04-22 09:13 | 4.95097 | 6.26672 | 4469 ft | 146 kts | 288° |
| 2026-04-22 09:13 | 4.95600 | 6.25731 | 4513 ft | 161 kts | 305° |
| 2026-04-22 09:13 | 4.96218 | 6.24716 | 4501 ft | 179 kts | 303° |
| 2026-04-22 09:14 | 4.96891 | 6.23610 | 4491 ft | 191 kts | 303° |
| 2026-04-22 09:14 | 4.97597 | 6.22452 | 4485 ft | 199 kts | 303° |
| 2026-04-22 09:14 | 4.98329 | 6.21253 | 4483 ft | 204 kts | 303° |
| 2026-04-22 09:14 | 4.99080 | 6.20015 | 4481 ft | 207 kts | 303° |
| 2026-04-22 09:15 | 4.99823 | 6.18801 | 4472 ft | 200 kts | 303° |
| 2026-04-22 09:15 | 5.00530 | 6.17639 | 4469 ft | 192 kts | 304° |
| 2026-04-22 09:15 | 5.01222 | 6.16503 | 4473 ft | 187 kts | 304° |
| 2026-04-22 09:15 | 5.01893 | 6.15402 | 4475 ft | 183 kts | 304° |
| 2026-04-22 09:16 | 5.02546 | 6.14334 | 4478 ft | 180 kts | 303° |
| 2026-04-22 09:16 | 5.03203 | 6.13261 | 4477 ft | 178 kts | 303° |
| 2026-04-22 09:16 | 5.03849 | 6.12203 | 4480 ft | 176 kts | 304° |
| 2026-04-22 09:16 | 5.04488 | 6.11155 | 4480 ft | 175 kts | 303° |
| 2026-04-22 09:17 | 5.05120 | 6.10126 | 4481 ft | 174 kts | 304° |
| 2026-04-22 09:17 | 5.05762 | 6.09078 | 4479 ft | 173 kts | 304° |
| 2026-04-22 09:17 | 5.06383 | 6.08053 | 4480 ft | 173 kts | 304° |
| 2026-04-22 09:17 | 5.07016 | 6.07022 | 4485 ft | 173 kts | 304° |
| 2026-04-22 09:18 | 5.07649 | 6.05985 | 4482 ft | 173 kts | 303° |
| 2026-04-22 09:18 | 5.08280 | 6.04957 | 4484 ft | 173 kts | 304° |
| 2026-04-22 09:18 | 5.08907 | 6.03927 | 4484 ft | 172 kts | 303° |
| 2026-04-22 09:18 | 5.09534 | 6.02898 | 4486 ft | 172 kts | 303° |
| 2026-04-22 09:19 | 5.10163 | 6.01873 | 4483 ft | 172 kts | 303° |
| 2026-04-22 09:19 | 5.10801 | 6.00829 | 4495 ft | 183 kts | 303° |
| 2026-04-22 09:19 | 5.11505 | 5.99683 | 4506 ft | 202 kts | 303° |
| 2026-04-22 09:19 | 5.12254 | 5.98461 | 4491 ft | 206 kts | 303° |
| 2026-04-22 09:20 | 5.13006 | 5.97225 | 4489 ft | 207 kts | 303° |
| 2026-04-22 09:20 | 5.13796 | 5.95989 | 4485 ft | 208 kts | 306° |
| 2026-04-22 09:20 | 5.14601 | 5.94783 | 4482 ft | 207 kts | 306° |
| 2026-04-22 09:20 | 5.15397 | 5.93586 | 4482 ft | 207 kts | 306° |
| 2026-04-22 09:21 | 5.16204 | 5.92374 | 4482 ft | 207 kts | 306° |
| 2026-04-22 09:21 | 5.17008 | 5.91176 | 4483 ft | 207 kts | 306° |
| 2026-04-22 09:21 | 5.17800 | 5.89984 | 4481 ft | 207 kts | 306° |
| 2026-04-22 09:21 | 5.18602 | 5.88779 | 4481 ft | 206 kts | 306° |
| 2026-04-22 09:22 | 5.19406 | 5.87575 | 4480 ft | 206 kts | 306° |
| 2026-04-22 09:22 | 5.20013 | 5.86289 | 4466 ft | 209 kts | 279° |
| 2026-04-22 09:22 | 5.20009 | 5.84841 | 4487 ft | 208 kts | 271° |
| 2026-04-22 09:22 | 5.20014 | 5.83381 | 4480 ft | 209 kts | 271° |
| 2026-04-22 09:23 | 5.20008 | 5.81920 | 4479 ft | 209 kts | 271° |
| 2026-04-22 09:23 | 5.20006 | 5.80453 | 4478 ft | 209 kts | 271° |
| 2026-04-22 09:23 | 5.19823 | 5.79019 | 4477 ft | 210 kts | 258° |
| 2026-04-22 09:23 | 5.19523 | 5.77561 | 4475 ft | 210 kts | 260° |
| 2026-04-22 09:24 | 5.19228 | 5.76118 | 4470 ft | 210 kts | 259° |